Kirchdorf, Austria
Current Conditions -  °F | °C
As of 3:50 PM on Sunday 23 Nov 2014 (Local Time) from LOWL Reporting Station
Broken Clouds Broken Clouds  
Wind Chill: 37°   Ceiling: 900
Heat Index: 43°   Visibility: 5mi
Dew Point: 37°   Wind: 9mph
Humidity: 81%   Direction: 110°ESE
Pressure: 30.27"   Gusts: NA
Location:  47.92°N, 14.13°E
Report Text: LOWL 231350Z 11008KT 8000 BKN009 06/03 Q1025 NOSIG
Loading
Personal Weather Stations






























Interactive Weather Map New forecast layout! Learn more

10-Day Weather Forecast

Advertisements
Track Severe Weather on mobile